sensor_id;sensor_type;location;lat;lon;timestamp;temperature;humidity
18998;DHT22;9632;51.018;4.284;2023-04-06T00:01:37;10.20;99.90
18998;DHT22;9632;51.018;4.284;2023-04-06T00:04:03;10.20;99.90
18998;DHT22;9632;51.018;4.284;2023-04-06T00:06:29;10.20;99.90
18998;DHT22;9632;51.018;4.284;2023-04-06T00:08:55;10.20;99.90
18998;DHT22;9632;51.018;4.284;2023-04-06T00:11:22;10.20;99.90
18998;DHT22;9632;51.018;4.284;2023-04-06T00:13:48;10.20;99.90
18998;DHT22;9632;51.018;4.284;2023-04-06T00:16:14;10.20;99.90
18998;DHT22;9632;51.018;4.284;2023-04-06T00:18:39;10.20;99.90
18998;DHT22;9632;51.018;4.284;2023-04-06T00:21:05;10.20;99.90
18998;DHT22;9632;51.018;4.284;2023-04-06T00:23:31;10.20;99.90
18998;DHT22;9632;51.018;4.284;2023-04-06T00:25:57;10.20;99.90
18998;DHT22;9632;51.018;4.284;2023-04-06T00:28:23;10.20;99.90
18998;DHT22;9632;51.018;4.284;2023-04-06T00:30:52;10.20;99.90
18998;DHT22;9632;51.018;4.284;2023-04-06T00:33:19;10.20;99.90
18998;DHT22;9632;51.018;4.284;2023-04-06T00:35:45;10.10;99.90
18998;DHT22;9632;51.018;4.284;2023-04-06T00:38:11;10.20;99.90
18998;DHT22;9632;51.018;4.284;2023-04-06T00:40:37;10.20;99.90
18998;DHT22;9632;51.018;4.284;2023-04-06T00:43:07;10.10;99.90
18998;DHT22;9632;51.018;4.284;2023-04-06T00:45:36;10.20;99.90
18998;DHT22;9632;51.018;4.284;2023-04-06T00:48:03;10.10;99.90
18998;DHT22;9632;51.018;4.284;2023-04-06T00:50:29;10.10;99.90
18998;DHT22;9632;51.018;4.284;2023-04-06T00:52:55;10.10;99.90
18998;DHT22;9632;51.018;4.284;2023-04-06T00:55:21;10.10;99.90
18998;DHT22;9632;51.018;4.284;2023-04-06T00:57:47;10.10;99.90
18998;DHT22;9632;51.018;4.284;2023-04-06T01:00:13;10.20;99.90
18998;DHT22;9632;51.018;4.284;2023-04-06T01:02:39;10.20;99.90
18998;DHT22;9632;51.018;4.284;2023-04-06T01:05:05;10.10;99.90
18998;DHT22;9632;51.018;4.284;2023-04-06T01:07:31;10.10;99.90
18998;DHT22;9632;51.018;4.284;2023-04-06T01:09:57;10.10;99.90
18998;DHT22;9632;51.018;4.284;2023-04-06T01:12:23;10.10;99.90
18998;DHT22;9632;51.018;4.284;2023-04-06T01:14:48;10.10;99.90
18998;DHT22;9632;51.018;4.284;2023-04-06T01:17:14;10.10;99.90
18998;DHT22;9632;51.018;4.284;2023-04-06T01:19:39;10.10;99.90
18998;DHT22;9632;51.018;4.284;2023-04-06T01:22:14;10.10;99.90
18998;DHT22;9632;51.018;4.284;2023-04-06T01:24:40;10.10;99.90
18998;DHT22;9632;51.018;4.284;2023-04-06T01:27:06;10.10;99.90
18998;DHT22;9632;51.018;4.284;2023-04-06T01:29:31;10.10;99.90
18998;DHT22;9632;51.018;4.284;2023-04-06T01:31:57;10.10;99.90
18998;DHT22;9632;51.018;4.284;2023-04-06T01:34:42;10.10;99.90
18998;DHT22;9632;51.018;4.284;2023-04-06T01:37:07;10.00;99.90
18998;DHT22;9632;51.018;4.284;2023-04-06T01:39:33;10.00;99.90
18998;DHT22;9632;51.018;4.284;2023-04-06T01:41:59;10.00;99.90
18998;DHT22;9632;51.018;4.284;2023-04-06T01:44:24;10.00;99.90
18998;DHT22;9632;51.018;4.284;2023-04-06T01:46:50;10.00;99.90
18998;DHT22;9632;51.018;4.284;2023-04-06T01:49:16;10.00;99.90
18998;DHT22;9632;51.018;4.284;2023-04-06T01:51:41;10.00;99.90
18998;DHT22;9632;51.018;4.284;2023-04-06T01:54:07;10.00;99.90
18998;DHT22;9632;51.018;4.284;2023-04-06T01:56:33;9.90;99.90
18998;DHT22;9632;51.018;4.284;2023-04-06T01:58:58;9.90;99.90
18998;DHT22;9632;51.018;4.284;2023-04-06T02:01:24;9.90;99.90
18998;DHT22;9632;51.018;4.284;2023-04-06T02:03:49;9.90;99.90
18998;DHT22;9632;51.018;4.284;2023-04-06T02:06:15;9.90;99.90
18998;DHT22;9632;51.018;4.284;2023-04-06T02:08:41;9.90;99.90
18998;DHT22;9632;51.018;4.284;2023-04-06T02:11:06;9.90;99.90
18998;DHT22;9632;51.018;4.284;2023-04-06T02:13:32;9.90;99.90
18998;DHT22;9632;51.018;4.284;2023-04-06T02:15:58;9.90;99.90
18998;DHT22;9632;51.018;4.284;2023-04-06T02:18:24;9.90;99.90
18998;DHT22;9632;51.018;4.284;2023-04-06T02:20:49;9.80;99.90
18998;DHT22;9632;51.018;4.284;2023-04-06T02:23:15;9.80;99.90
18998;DHT22;9632;51.018;4.284;2023-04-06T02:25:41;9.80;99.90
18998;DHT22;9632;51.018;4.284;2023-04-06T02:28:07;9.80;99.90
18998;DHT22;9632;51.018;4.284;2023-04-06T02:30:32;9.80;99.90
18998;DHT22;9632;51.018;4.284;2023-04-06T02:33:02;9.80;99.90
18998;DHT22;9632;51.018;4.284;2023-04-06T02:35:29;9.70;99.90
18998;DHT22;9632;51.018;4.284;2023-04-06T02:37:55;9.70;99.90
18998;DHT22;9632;51.018;4.284;2023-04-06T02:40:21;9.80;99.90
18998;DHT22;9632;51.018;4.284;2023-04-06T02:42:46;9.70;99.90
18998;DHT22;9632;51.018;4.284;2023-04-06T02:45:12;9.70;99.90
18998;DHT22;9632;51.018;4.284;2023-04-06T02:47:38;9.70;99.90
18998;DHT22;9632;51.018;4.284;2023-04-06T02:50:04;9.70;99.90
18998;DHT22;9632;51.018;4.284;2023-04-06T02:52:30;9.70;99.90
18998;DHT22;9632;51.018;4.284;2023-04-06T02:54:56;9.60;99.90
18998;DHT22;9632;51.018;4.284;2023-04-06T02:57:21;9.60;99.90
18998;DHT22;9632;51.018;4.284;2023-04-06T02:59:47;9.60;99.90
18998;DHT22;9632;51.018;4.284;2023-04-06T03:02:12;9.60;99.90
18998;DHT22;9632;51.018;4.284;2023-04-06T03:04:38;9.60;99.90
18998;DHT22;9632;51.018;4.284;2023-04-06T03:07:04;9.60;99.90
18998;DHT22;9632;51.018;4.284;2023-04-06T03:09:29;9.60;99.90
18998;DHT22;9632;51.018;4.284;2023-04-06T03:11:55;9.50;99.90
18998;DHT22;9632;51.018;4.284;2023-04-06T03:14:21;9.50;99.90
18998;DHT22;9632;51.018;4.284;2023-04-06T03:16:48;9.50;99.90
18998;DHT22;9632;51.018;4.284;2023-04-06T03:19:14;9.50;99.90
18998;DHT22;9632;51.018;4.284;2023-04-06T03:21:40;9.50;99.90
18998;DHT22;9632;51.018;4.284;2023-04-06T03:24:07;9.50;99.90
18998;DHT22;9632;51.018;4.284;2023-04-06T03:26:32;9.40;99.90
18998;DHT22;9632;51.018;4.284;2023-04-06T03:28:58;9.40;99.90
18998;DHT22;9632;51.018;4.284;2023-04-06T03:31:24;9.40;99.90
18998;DHT22;9632;51.018;4.284;2023-04-06T03:33:49;9.40;99.90
18998;DHT22;9632;51.018;4.284;2023-04-06T03:36:15;9.30;99.90
18998;DHT22;9632;51.018;4.284;2023-04-06T03:38:41;9.30;99.90
18998;DHT22;9632;51.018;4.284;2023-04-06T03:41:07;9.30;99.90
18998;DHT22;9632;51.018;4.284;2023-04-06T03:43:32;9.30;99.90
18998;DHT22;9632;51.018;4.284;2023-04-06T03:45:58;9.30;99.90
18998;DHT22;9632;51.018;4.284;2023-04-06T03:48:23;9.30;99.90
18998;DHT22;9632;51.018;4.284;2023-04-06T03:50:49;9.30;99.90
18998;DHT22;9632;51.018;4.284;2023-04-06T03:53:15;9.30;99.90
18998;DHT22;9632;51.018;4.284;2023-04-06T03:55:41;9.30;99.90
18998;DHT22;9632;51.018;4.284;2023-04-06T03:58:06;9.30;99.90
18998;DHT22;9632;51.018;4.284;2023-04-06T04:00:32;9.30;99.90
18998;DHT22;9632;51.018;4.284;2023-04-06T04:02:58;9.30;99.90
18998;DHT22;9632;51.018;4.284;2023-04-06T04:05:24;9.20;99.90
18998;DHT22;9632;51.018;4.284;2023-04-06T04:07:51;9.20;99.90
18998;DHT22;9632;51.018;4.284;2023-04-06T04:10:17;9.20;99.90
18998;DHT22;9632;51.018;4.284;2023-04-06T04:12:43;9.20;99.90
18998;DHT22;9632;51.018;4.284;2023-04-06T04:15:09;9.20;99.90
18998;DHT22;9632;51.018;4.284;2023-04-06T04:17:35;9.20;99.90
18998;DHT22;9632;51.018;4.284;2023-04-06T04:20:01;9.20;99.90
18998;DHT22;9632;51.018;4.284;2023-04-06T04:22:26;9.20;99.90
18998;DHT22;9632;51.018;4.284;2023-04-06T04:24:53;9.20;99.90
18998;DHT22;9632;51.018;4.284;2023-04-06T04:27:19;9.20;99.90
18998;DHT22;9632;51.018;4.284;2023-04-06T04:29:44;9.20;99.90
18998;DHT22;9632;51.018;4.284;2023-04-06T04:32:10;9.20;99.90
18998;DHT22;9632;51.018;4.284;2023-04-06T04:34:36;9.20;99.90
18998;DHT22;9632;51.018;4.284;2023-04-06T04:37:05;9.20;99.90
18998;DHT22;9632;51.018;4.284;2023-04-06T04:39:31;9.20;99.90
18998;DHT22;9632;51.018;4.284;2023-04-06T04:41:57;9.20;99.90
18998;DHT22;9632;51.018;4.284;2023-04-06T04:44:23;9.20;99.90
18998;DHT22;9632;51.018;4.284;2023-04-06T04:46:48;9.20;99.90
18998;DHT22;9632;51.018;4.284;2023-04-06T04:49:14;9.20;99.90
18998;DHT22;9632;51.018;4.284;2023-04-06T04:51:40;9.20;99.90
18998;DHT22;9632;51.018;4.284;2023-04-06T04:54:05;9.20;99.90
18998;DHT22;9632;51.018;4.284;2023-04-06T04:56:31;9.20;99.90
18998;DHT22;9632;51.018;4.284;2023-04-06T04:58:57;9.20;99.90
18998;DHT22;9632;51.018;4.284;2023-04-06T05:01:22;9.20;99.90
18998;DHT22;9632;51.018;4.284;2023-04-06T05:03:48;9.20;99.90
18998;DHT22;9632;51.018;4.284;2023-04-06T05:06:14;9.20;99.90
18998;DHT22;9632;51.018;4.284;2023-04-06T05:08:40;9.20;99.90
18998;DHT22;9632;51.018;4.284;2023-04-06T05:11:06;9.30;99.90
18998;DHT22;9632;51.018;4.284;2023-04-06T05:13:32;9.30;99.90
18998;DHT22;9632;51.018;4.284;2023-04-06T05:15:58;9.30;99.90
18998;DHT22;9632;51.018;4.284;2023-04-06T05:18:23;9.30;99.90
18998;DHT22;9632;51.018;4.284;2023-04-06T05:20:49;9.30;99.90
18998;DHT22;9632;51.018;4.284;2023-04-06T05:23:17;9.40;99.90
18998;DHT22;9632;51.018;4.284;2023-04-06T05:25:42;9.40;99.90
18998;DHT22;9632;51.018;4.284;2023-04-06T05:28:08;9.40;99.90
18998;DHT22;9632;51.018;4.284;2023-04-06T05:30:34;9.40;99.90
18998;DHT22;9632;51.018;4.284;2023-04-06T05:33:01;9.40;99.90
18998;DHT22;9632;51.018;4.284;2023-04-06T05:35:26;9.40;99.90
18998;DHT22;9632;51.018;4.284;2023-04-06T05:37:52;9.50;99.90
18998;DHT22;9632;51.018;4.284;2023-04-06T05:40:18;9.40;99.90
18998;DHT22;9632;51.018;4.284;2023-04-06T05:42:43;9.40;99.90
18998;DHT22;9632;51.018;4.284;2023-04-06T05:45:10;9.40;99.90
18998;DHT22;9632;51.018;4.284;2023-04-06T05:47:36;9.50;99.90
18998;DHT22;9632;51.018;4.284;2023-04-06T05:50:03;9.50;99.90
18998;DHT22;9632;51.018;4.284;2023-04-06T05:52:28;9.50;99.90
18998;DHT22;9632;51.018;4.284;2023-04-06T05:54:54;9.50;99.90
18998;DHT22;9632;51.018;4.284;2023-04-06T05:57:20;9.50;99.90
18998;DHT22;9632;51.018;4.284;2023-04-06T05:59:45;9.50;99.90
18998;DHT22;9632;51.018;4.284;2023-04-06T06:02:11;9.60;99.90
18998;DHT22;9632;51.018;4.284;2023-04-06T06:04:37;9.60;99.90
18998;DHT22;9632;51.018;4.284;2023-04-06T06:07:02;9.60;99.90
18998;DHT22;9632;51.018;4.284;2023-04-06T06:09:28;9.60;99.90
18998;DHT22;9632;51.018;4.284;2023-04-06T06:11:54;9.70;99.90
18998;DHT22;9632;51.018;4.284;2023-04-06T06:14:20;9.60;99.90
18998;DHT22;9632;51.018;4.284;2023-04-06T06:16:47;9.60;99.90
18998;DHT22;9632;51.018;4.284;2023-04-06T06:19:12;9.60;99.90
18998;DHT22;9632;51.018;4.284;2023-04-06T06:21:38;9.60;99.90
18998;DHT22;9632;51.018;4.284;2023-04-06T06:24:04;9.60;99.90
18998;DHT22;9632;51.018;4.284;2023-04-06T06:26:30;9.70;99.90
18998;DHT22;9632;51.018;4.284;2023-04-06T06:28:57;9.70;99.90
18998;DHT22;9632;51.018;4.284;2023-04-06T06:31:35;9.70;99.90
18998;DHT22;9632;51.018;4.284;2023-04-06T06:34:01;9.70;99.90
18998;DHT22;9632;51.018;4.284;2023-04-06T06:36:29;9.70;99.90
18998;DHT22;9632;51.018;4.284;2023-04-06T06:39:03;9.70;99.90
18998;DHT22;9632;51.018;4.284;2023-04-06T06:41:31;9.70;99.90
18998;DHT22;9632;51.018;4.284;2023-04-06T06:43:57;9.70;99.90
18998;DHT22;9632;51.018;4.284;2023-04-06T06:46:23;9.70;99.90
18998;DHT22;9632;51.018;4.284;2023-04-06T06:48:48;9.70;99.90
18998;DHT22;9632;51.018;4.284;2023-04-06T06:51:14;9.70;99.90
18998;DHT22;9632;51.018;4.284;2023-04-06T06:53:40;9.80;99.90
18998;DHT22;9632;51.018;4.284;2023-04-06T06:56:06;9.80;99.90
18998;DHT22;9632;51.018;4.284;2023-04-06T06:58:31;9.80;99.90
18998;DHT22;9632;51.018;4.284;2023-04-06T07:00:58;9.90;99.90
18998;DHT22;9632;51.018;4.284;2023-04-06T07:03:24;9.90;99.90
18998;DHT22;9632;51.018;4.284;2023-04-06T07:05:50;9.90;99.90
18998;DHT22;9632;51.018;4.284;2023-04-06T07:08:22;9.90;99.90
18998;DHT22;9632;51.018;4.284;2023-04-06T07:10:51;9.90;99.90
18998;DHT22;9632;51.018;4.284;2023-04-06T07:13:18;9.90;99.90
18998;DHT22;9632;51.018;4.284;2023-04-06T07:15:48;10.00;99.90
18998;DHT22;9632;51.018;4.284;2023-04-06T07:18:16;10.00;99.90
18998;DHT22;9632;51.018;4.284;2023-04-06T07:20:42;10.00;99.90
18998;DHT22;9632;51.018;4.284;2023-04-06T07:23:07;10.00;99.90
18998;DHT22;9632;51.018;4.284;2023-04-06T07:25:33;10.00;99.90
18998;DHT22;9632;51.018;4.284;2023-04-06T07:27:59;10.10;99.90
18998;DHT22;9632;51.018;4.284;2023-04-06T07:30:24;10.10;99.90
18998;DHT22;9632;51.018;4.284;2023-04-06T07:32:53;10.10;99.90
18998;DHT22;9632;51.018;4.284;2023-04-06T07:35:21;10.20;99.90
18998;DHT22;9632;51.018;4.284;2023-04-06T07:37:46;10.20;99.90
18998;DHT22;9632;51.018;4.284;2023-04-06T07:40:12;10.20;99.90
18998;DHT22;9632;51.018;4.284;2023-04-06T07:42:38;10.20;99.90
18998;DHT22;9632;51.018;4.284;2023-04-06T07:45:04;10.20;99.90
18998;DHT22;9632;51.018;4.284;2023-04-06T07:47:29;10.30;99.90
18998;DHT22;9632;51.018;4.284;2023-04-06T07:49:55;10.30;99.90
18998;DHT22;9632;51.018;4.284;2023-04-06T07:52:23;10.30;99.90
18998;DHT22;9632;51.018;4.284;2023-04-06T07:54:49;10.30;99.90
18998;DHT22;9632;51.018;4.284;2023-04-06T07:57:15;10.30;99.90
18998;DHT22;9632;51.018;4.284;2023-04-06T07:59:41;10.30;99.90
18998;DHT22;9632;51.018;4.284;2023-04-06T08:02:06;10.40;99.90
18998;DHT22;9632;51.018;4.284;2023-04-06T08:04:32;10.30;99.90
18998;DHT22;9632;51.018;4.284;2023-04-06T08:06:58;10.30;99.90
18998;DHT22;9632;51.018;4.284;2023-04-06T08:09:24;10.40;99.90
18998;DHT22;9632;51.018;4.284;2023-04-06T08:11:50;10.30;99.90
18998;DHT22;9632;51.018;4.284;2023-04-06T08:14:15;10.20;99.90
18998;DHT22;9632;51.018;4.284;2023-04-06T08:16:41;10.20;99.90
18998;DHT22;9632;51.018;4.284;2023-04-06T08:19:07;10.30;99.90
18998;DHT22;9632;51.018;4.284;2023-04-06T08:21:35;10.30;99.90
18998;DHT22;9632;51.018;4.284;2023-04-06T08:24:01;10.30;99.90
18998;DHT22;9632;51.018;4.284;2023-04-06T08:26:27;10.40;99.90
18998;DHT22;9632;51.018;4.284;2023-04-06T08:28:53;10.30;99.90
18998;DHT22;9632;51.018;4.284;2023-04-06T08:31:19;10.30;99.90
18998;DHT22;9632;51.018;4.284;2023-04-06T08:33:45;10.30;99.90
18998;DHT22;9632;51.018;4.284;2023-04-06T08:36:14;10.30;99.90
18998;DHT22;9632;51.018;4.284;2023-04-06T08:38:41;10.20;99.90
18998;DHT22;9632;51.018;4.284;2023-04-06T08:41:09;10.20;99.90
18998;DHT22;9632;51.018;4.284;2023-04-06T08:43:59;10.20;99.90
18998;DHT22;9632;51.018;4.284;2023-04-06T08:46:25;10.20;99.90
18998;DHT22;9632;51.018;4.284;2023-04-06T08:49:02;10.20;99.90
18998;DHT22;9632;51.018;4.284;2023-04-06T08:51:29;10.20;99.90
18998;DHT22;9632;51.018;4.284;2023-04-06T08:53:59;10.30;99.90
18998;DHT22;9632;51.018;4.284;2023-04-06T08:56:26;10.30;99.90
18998;DHT22;9632;51.018;4.284;2023-04-06T08:58:53;10.30;99.90
18998;DHT22;9632;51.018;4.284;2023-04-06T09:01:26;10.40;99.90
18998;DHT22;9632;51.018;4.284;2023-04-06T09:03:57;10.40;99.90
18998;DHT22;9632;51.018;4.284;2023-04-06T09:06:23;10.50;99.90
18998;DHT22;9632;51.018;4.284;2023-04-06T09:08:49;10.60;99.90
18998;DHT22;9632;51.018;4.284;2023-04-06T09:11:15;10.70;99.90
18998;DHT22;9632;51.018;4.284;2023-04-06T09:13:52;10.70;99.90
18998;DHT22;9632;51.018;4.284;2023-04-06T09:16:18;10.80;99.90
18998;DHT22;9632;51.018;4.284;2023-04-06T09:18:44;10.80;99.90
18998;DHT22;9632;51.018;4.284;2023-04-06T09:21:11;10.90;99.90
18998;DHT22;9632;51.018;4.284;2023-04-06T09:23:37;10.80;99.90
18998;DHT22;9632;51.018;4.284;2023-04-06T09:26:12;10.80;99.90
18998;DHT22;9632;51.018;4.284;2023-04-06T09:31:11;10.70;99.90
18998;DHT22;9632;51.018;4.284;2023-04-06T09:33:40;10.70;99.90
18998;DHT22;9632;51.018;4.284;2023-04-06T09:36:06;10.80;99.90
18998;DHT22;9632;51.018;4.284;2023-04-06T09:38:32;10.70;99.90
18998;DHT22;9632;51.018;4.284;2023-04-06T09:40:58;10.70;99.90
18998;DHT22;9632;51.018;4.284;2023-04-06T09:43:27;10.70;99.90
18998;DHT22;9632;51.018;4.284;2023-04-06T09:45:53;10.70;99.90
18998;DHT22;9632;51.018;4.284;2023-04-06T09:48:21;10.80;99.90
18998;DHT22;9632;51.018;4.284;2023-04-06T09:50:50;10.80;99.90
18998;DHT22;9632;51.018;4.284;2023-04-06T09:53:20;10.80;99.90
18998;DHT22;9632;51.018;4.284;2023-04-06T09:55:49;10.70;99.90
18998;DHT22;9632;51.018;4.284;2023-04-06T09:58:17;10.80;99.90
18998;DHT22;9632;51.018;4.284;2023-04-06T10:00:58;10.80;99.90
18998;DHT22;9632;51.018;4.284;2023-04-06T10:06:23;10.80;99.90
18998;DHT22;9632;51.018;4.284;2023-04-06T10:08:51;10.80;99.90
18998;DHT22;9632;51.018;4.284;2023-04-06T10:11:20;10.80;99.90
18998;DHT22;9632;51.018;4.284;2023-04-06T10:13:47;10.80;99.90
18998;DHT22;9632;51.018;4.284;2023-04-06T10:16:14;10.80;99.90
18998;DHT22;9632;51.018;4.284;2023-04-06T10:18:43;10.80;99.90
18998;DHT22;9632;51.018;4.284;2023-04-06T10:21:12;10.80;99.90
18998;DHT22;9632;51.018;4.284;2023-04-06T10:23:48;10.80;99.90
18998;DHT22;9632;51.018;4.284;2023-04-06T10:26:16;10.80;99.90
18998;DHT22;9632;51.018;4.284;2023-04-06T10:28:44;10.70;99.90
18998;DHT22;9632;51.018;4.284;2023-04-06T10:31:10;10.70;99.90
18998;DHT22;9632;51.018;4.284;2023-04-06T10:33:36;10.70;99.90
18998;DHT22;9632;51.018;4.284;2023-04-06T10:36:22;10.70;99.90
18998;DHT22;9632;51.018;4.284;2023-04-06T10:38:57;10.80;99.90
18998;DHT22;9632;51.018;4.284;2023-04-06T10:41:24;10.90;99.90
18998;DHT22;9632;51.018;4.284;2023-04-06T10:43:57;11.00;99.90
18998;DHT22;9632;51.018;4.284;2023-04-06T10:46:29;11.00;99.90
18998;DHT22;9632;51.018;4.284;2023-04-06T10:48:55;11.00;99.90
18998;DHT22;9632;51.018;4.284;2023-04-06T10:51:25;11.10;99.90
18998;DHT22;9632;51.018;4.284;2023-04-06T10:53:55;11.10;99.90
18998;DHT22;9632;51.018;4.284;2023-04-06T10:56:24;11.00;99.90
18998;DHT22;9632;51.018;4.284;2023-04-06T10:58:54;11.00;99.90
18998;DHT22;9632;51.018;4.284;2023-04-06T11:01:24;11.00;99.90
18998;DHT22;9632;51.018;4.284;2023-04-06T11:03:56;11.00;99.90
18998;DHT22;9632;51.018;4.284;2023-04-06T11:06:26;11.00;99.90
18998;DHT22;9632;51.018;4.284;2023-04-06T11:08:55;11.00;99.90
18998;DHT22;9632;51.018;4.284;2023-04-06T11:11:23;11.00;99.90
18998;DHT22;9632;51.018;4.284;2023-04-06T11:13:52;11.10;99.90
18998;DHT22;9632;51.018;4.284;2023-04-06T11:16:23;11.10;99.90
18998;DHT22;9632;51.018;4.284;2023-04-06T11:24:23;11.00;99.90
18998;DHT22;9632;51.018;4.284;2023-04-06T11:26:55;11.00;99.90
18998;DHT22;9632;51.018;4.284;2023-04-06T11:29:23;11.10;99.90
18998;DHT22;9632;51.018;4.284;2023-04-06T11:31:54;11.10;99.90
18998;DHT22;9632;51.018;4.284;2023-04-06T11:34:24;11.10;99.90
18998;DHT22;9632;51.018;4.284;2023-04-06T11:37:01;11.10;99.90
18998;DHT22;9632;51.018;4.284;2023-04-06T11:39:28;11.00;99.90
18998;DHT22;9632;51.018;4.284;2023-04-06T11:42:00;11.00;99.90
18998;DHT22;9632;51.018;4.284;2023-04-06T11:44:36;11.10;99.90
18998;DHT22;9632;51.018;4.284;2023-04-06T11:47:03;11.10;99.90
18998;DHT22;9632;51.018;4.284;2023-04-06T11:49:29;11.00;99.90
18998;DHT22;9632;51.018;4.284;2023-04-06T11:51:56;11.00;99.90
18998;DHT22;9632;51.018;4.284;2023-04-06T11:54:36;11.00;99.90
18998;DHT22;9632;51.018;4.284;2023-04-06T11:57:08;11.10;99.90
18998;DHT22;9632;51.018;4.284;2023-04-06T11:59:34;11.10;99.90
18998;DHT22;9632;51.018;4.284;2023-04-06T12:02:04;11.20;99.90
18998;DHT22;9632;51.018;4.284;2023-04-06T12:04:30;11.20;99.90
18998;DHT22;9632;51.018;4.284;2023-04-06T12:06:57;11.30;99.90
18998;DHT22;9632;51.018;4.284;2023-04-06T12:09:23;11.30;99.90
18998;DHT22;9632;51.018;4.284;2023-04-06T12:11:48;11.30;99.90
18998;DHT22;9632;51.018;4.284;2023-04-06T12:14:14;11.20;99.90
18998;DHT22;9632;51.018;4.284;2023-04-06T12:16:40;11.30;99.90
18998;DHT22;9632;51.018;4.284;2023-04-06T12:19:06;11.20;99.90
18998;DHT22;9632;51.018;4.284;2023-04-06T12:21:33;11.30;99.90
18998;DHT22;9632;51.018;4.284;2023-04-06T12:23:59;11.30;99.90
18998;DHT22;9632;51.018;4.284;2023-04-06T12:26:27;11.40;99.90
18998;DHT22;9632;51.018;4.284;2023-04-06T12:28:53;11.40;99.90
18998;DHT22;9632;51.018;4.284;2023-04-06T12:31:23;11.50;99.90
18998;DHT22;9632;51.018;4.284;2023-04-06T12:33:50;11.40;99.90
18998;DHT22;9632;51.018;4.284;2023-04-06T12:36:19;11.30;99.90
18998;DHT22;9632;51.018;4.284;2023-04-06T12:38:47;11.20;99.90
18998;DHT22;9632;51.018;4.284;2023-04-06T12:41:13;11.20;99.90
18998;DHT22;9632;51.018;4.284;2023-04-06T12:43:43;11.30;99.90
18998;DHT22;9632;51.018;4.284;2023-04-06T12:46:09;11.30;99.90
18998;DHT22;9632;51.018;4.284;2023-04-06T12:48:35;11.40;99.90
18998;DHT22;9632;51.018;4.284;2023-04-06T12:51:03;11.40;99.90
18998;DHT22;9632;51.018;4.284;2023-04-06T12:53:30;11.30;99.90
18998;DHT22;9632;51.018;4.284;2023-04-06T12:55:56;11.30;99.90
18998;DHT22;9632;51.018;4.284;2023-04-06T12:58:23;11.40;99.90
18998;DHT22;9632;51.018;4.284;2023-04-06T13:00:50;11.40;99.90
18998;DHT22;9632;51.018;4.284;2023-04-06T13:03:17;11.40;99.90
18998;DHT22;9632;51.018;4.284;2023-04-06T13:05:47;11.40;99.90
18998;DHT22;9632;51.018;4.284;2023-04-06T13:08:15;11.40;99.90
18998;DHT22;9632;51.018;4.284;2023-04-06T13:10:51;11.40;99.90
18998;DHT22;9632;51.018;4.284;2023-04-06T13:13:25;11.40;99.90
18998;DHT22;9632;51.018;4.284;2023-04-06T13:16:01;11.40;99.90
18998;DHT22;9632;51.018;4.284;2023-04-06T13:18:29;11.40;99.90
18998;DHT22;9632;51.018;4.284;2023-04-06T13:20:58;11.40;99.90
18998;DHT22;9632;51.018;4.284;2023-04-06T13:23:28;11.40;99.90
18998;DHT22;9632;51.018;4.284;2023-04-06T13:26:03;11.30;99.90
18998;DHT22;9632;51.018;4.284;2023-04-06T13:28:36;11.30;99.90
18998;DHT22;9632;51.018;4.284;2023-04-06T13:31:06;11.30;99.90
18998;DHT22;9632;51.018;4.284;2023-04-06T13:33:32;11.40;99.90
18998;DHT22;9632;51.018;4.284;2023-04-06T13:35:59;11.40;99.90
18998;DHT22;9632;51.018;4.284;2023-04-06T13:38:25;11.40;99.90
18998;DHT22;9632;51.018;4.284;2023-04-06T13:40:51;11.40;99.90
18998;DHT22;9632;51.018;4.284;2023-04-06T13:43:17;11.40;99.90
18998;DHT22;9632;51.018;4.284;2023-04-06T13:45:50;11.40;99.90
18998;DHT22;9632;51.018;4.284;2023-04-06T13:48:17;11.40;99.90
18998;DHT22;9632;51.018;4.284;2023-04-06T13:50:43;11.40;99.90
18998;DHT22;9632;51.018;4.284;2023-04-06T13:53:09;11.50;99.90
18998;DHT22;9632;51.018;4.284;2023-04-06T13:55:34;11.50;99.90
18998;DHT22;9632;51.018;4.284;2023-04-06T13:58:00;11.50;99.90
18998;DHT22;9632;51.018;4.284;2023-04-06T14:00:26;11.50;99.90
18998;DHT22;9632;51.018;4.284;2023-04-06T14:02:53;11.60;99.90
18998;DHT22;9632;51.018;4.284;2023-04-06T14:05:20;11.60;99.90
18998;DHT22;9632;51.018;4.284;2023-04-06T14:07:46;11.60;99.90
18998;DHT22;9632;51.018;4.284;2023-04-06T14:10:11;11.60;99.90
18998;DHT22;9632;51.018;4.284;2023-04-06T14:12:43;11.60;99.90
18998;DHT22;9632;51.018;4.284;2023-04-06T14:15:11;11.70;99.90
18998;DHT22;9632;51.018;4.284;2023-04-06T14:17:37;11.70;99.90
18998;DHT22;9632;51.018;4.284;2023-04-06T14:20:04;11.60;99.90
18998;DHT22;9632;51.018;4.284;2023-04-06T14:22:31;11.70;99.90
18998;DHT22;9632;51.018;4.284;2023-04-06T14:24:56;11.60;99.90
18998;DHT22;9632;51.018;4.284;2023-04-06T14:27:23;11.70;99.90
18998;DHT22;9632;51.018;4.284;2023-04-06T14:29:49;11.60;99.90
18998;DHT22;9632;51.018;4.284;2023-04-06T14:32:14;11.60;99.90
18998;DHT22;9632;51.018;4.284;2023-04-06T14:34:41;11.60;99.90
18998;DHT22;9632;51.018;4.284;2023-04-06T14:37:07;11.60;99.90
18998;DHT22;9632;51.018;4.284;2023-04-06T14:39:32;11.70;99.90
18998;DHT22;9632;51.018;4.284;2023-04-06T14:41:58;11.80;99.90
18998;DHT22;9632;51.018;4.284;2023-04-06T14:44:24;11.90;99.90
18998;DHT22;9632;51.018;4.284;2023-04-06T14:46:49;11.90;99.90
18998;DHT22;9632;51.018;4.284;2023-04-06T14:49:15;12.00;99.90
18998;DHT22;9632;51.018;4.284;2023-04-06T14:51:41;11.90;99.90
18998;DHT22;9632;51.018;4.284;2023-04-06T14:54:07;11.90;99.90
18998;DHT22;9632;51.018;4.284;2023-04-06T14:56:32;11.80;99.90
18998;DHT22;9632;51.018;4.284;2023-04-06T14:58:59;11.80;99.90
18998;DHT22;9632;51.018;4.284;2023-04-06T15:01:27;11.80;99.90
18998;DHT22;9632;51.018;4.284;2023-04-06T15:03:53;11.80;99.90
18998;DHT22;9632;51.018;4.284;2023-04-06T15:06:19;11.90;99.90
18998;DHT22;9632;51.018;4.284;2023-04-06T15:08:47;12.00;99.90
18998;DHT22;9632;51.018;4.284;2023-04-06T15:11:12;11.90;99.90
18998;DHT22;9632;51.018;4.284;2023-04-06T15:13:39;11.80;99.90
18998;DHT22;9632;51.018;4.284;2023-04-06T15:16:05;11.90;99.90
18998;DHT22;9632;51.018;4.284;2023-04-06T15:18:32;12.00;99.90
18998;DHT22;9632;51.018;4.284;2023-04-06T15:20:58;12.00;99.90
18998;DHT22;9632;51.018;4.284;2023-04-06T15:23:24;12.10;99.90
18998;DHT22;9632;51.018;4.284;2023-04-06T15:25:50;12.10;99.90
18998;DHT22;9632;51.018;4.284;2023-04-06T15:28:16;12.20;99.90
18998;DHT22;9632;51.018;4.284;2023-04-06T15:30:41;12.20;99.90
18998;DHT22;9632;51.018;4.284;2023-04-06T15:33:08;12.30;99.90
18998;DHT22;9632;51.018;4.284;2023-04-06T15:35:34;12.30;99.90
18998;DHT22;9632;51.018;4.284;2023-04-06T15:38:04;12.40;99.90
18998;DHT22;9632;51.018;4.284;2023-04-06T15:40:31;12.40;99.90
18998;DHT22;9632;51.018;4.284;2023-04-06T15:42:56;12.50;99.90
18998;DHT22;9632;51.018;4.284;2023-04-06T15:45:22;12.60;99.90
18998;DHT22;9632;51.018;4.284;2023-04-06T15:47:48;12.60;99.90
18998;DHT22;9632;51.018;4.284;2023-04-06T15:50:13;12.60;99.90
18998;DHT22;9632;51.018;4.284;2023-04-06T15:52:39;12.60;99.90
18998;DHT22;9632;51.018;4.284;2023-04-06T15:55:06;12.70;99.90
18998;DHT22;9632;51.018;4.284;2023-04-06T15:57:33;12.80;99.90
18998;DHT22;9632;51.018;4.284;2023-04-06T15:59:59;12.80;99.90
18998;DHT22;9632;51.018;4.284;2023-04-06T16:02:26;12.80;99.90